sensor_id;sensor_type;location;lat;lon;timestamp;P1;durP1;ratioP1;P2;durP2;ratioP2
22770;SDS011;11552;50.786;4.332;2022-07-12T00:01:20;3.38;;;2.63;;
22770;SDS011;11552;50.786;4.332;2022-07-12T00:03:46;4.72;;;2.80;;
22770;SDS011;11552;50.786;4.332;2022-07-12T00:06:12;4.30;;;2.72;;
22770;SDS011;11552;50.786;4.332;2022-07-12T00:08:37;4.30;;;2.80;;
22770;SDS011;11552;50.786;4.332;2022-07-12T00:11:03;4.15;;;2.90;;
22770;SDS011;11552;50.786;4.332;2022-07-12T00:16:03;3.28;;;2.63;;
22770;SDS011;11552;50.786;4.332;2022-07-12T00:18:29;4.18;;;3.05;;
22770;SDS011;11552;50.786;4.332;2022-07-12T00:20:55;4.53;;;3.58;;
22770;SDS011;11552;50.786;4.332;2022-07-12T00:23:21;3.38;;;2.97;;
22770;SDS011;11552;50.786;4.332;2022-07-12T00:25:46;3.38;;;2.88;;
22770;SDS011;11552;50.786;4.332;2022-07-12T00:28:12;4.45;;;2.67;;
22770;SDS011;11552;50.786;4.332;2022-07-12T00:30:37;6.60;;;2.90;;
22770;SDS011;11552;50.786;4.332;2022-07-12T00:33:03;3.90;;;3.00;;
22770;SDS011;11552;50.786;4.332;2022-07-12T00:35:29;3.15;;;2.85;;
22770;SDS011;11552;50.786;4.332;2022-07-12T00:37:54;7.25;;;3.10;;
22770;SDS011;11552;50.786;4.332;2022-07-12T00:40:20;4.72;;;2.88;;
22770;SDS011;11552;50.786;4.332;2022-07-12T00:42:46;3.50;;;2.60;;
22770;SDS011;11552;50.786;4.332;2022-07-12T00:45:12;4.82;;;3.20;;
22770;SDS011;11552;50.786;4.332;2022-07-12T00:47:39;3.63;;;3.03;;
22770;SDS011;11552;50.786;4.332;2022-07-12T00:50:13;5.30;;;3.45;;
22770;SDS011;11552;50.786;4.332;2022-07-12T00:52:42;4.68;;;3.58;;
22770;SDS011;11552;50.786;4.332;2022-07-12T00:55:13;4.85;;;3.35;;
22770;SDS011;11552;50.786;4.332;2022-07-12T00:57:40;3.25;;;2.92;;
22770;SDS011;11552;50.786;4.332;2022-07-12T01:00:09;6.15;;;3.50;;
22770;SDS011;11552;50.786;4.332;2022-07-12T01:02:36;5.28;;;3.17;;
22770;SDS011;11552;50.786;4.332;2022-07-12T01:07:49;5.65;;;3.33;;
22770;SDS011;11552;50.786;4.332;2022-07-12T01:10:15;4.90;;;3.08;;
22770;SDS011;11552;50.786;4.332;2022-07-12T01:12:41;4.28;;;3.20;;
22770;SDS011;11552;50.786;4.332;2022-07-12T01:15:08;4.00;;;2.85;;
22770;SDS011;11552;50.786;4.332;2022-07-12T01:17:34;3.00;;;2.70;;
22770;SDS011;11552;50.786;4.332;2022-07-12T01:20:00;5.18;;;2.90;;
22770;SDS011;11552;50.786;4.332;2022-07-12T01:22:30;4.93;;;3.22;;
22770;SDS011;11552;50.786;4.332;2022-07-12T01:24:59;7.93;;;3.58;;
22770;SDS011;11552;50.786;4.332;2022-07-12T01:27:26;4.97;;;3.08;;
22770;SDS011;11552;50.786;4.332;2022-07-12T01:29:52;4.28;;;3.45;;
22770;SDS011;11552;50.786;4.332;2022-07-12T01:32:18;4.32;;;3.00;;
22770;SDS011;11552;50.786;4.332;2022-07-12T01:34:54;6.20;;;3.95;;
22770;SDS011;11552;50.786;4.332;2022-07-12T01:37:22;4.43;;;3.28;;
22770;SDS011;11552;50.786;4.332;2022-07-12T01:39:51;4.72;;;3.28;;
22770;SDS011;11552;50.786;4.332;2022-07-12T01:42:19;5.00;;;3.30;;
22770;SDS011;11552;50.786;4.332;2022-07-12T01:44:48;4.28;;;3.17;;
22770;SDS011;11552;50.786;4.332;2022-07-12T01:47:15;5.15;;;3.38;;
22770;SDS011;11552;50.786;4.332;2022-07-12T01:49:44;3.80;;;3.05;;
22770;SDS011;11552;50.786;4.332;2022-07-12T01:52:10;4.35;;;3.00;;
22770;SDS011;11552;50.786;4.332;2022-07-12T01:54:36;3.10;;;2.65;;
22770;SDS011;11552;50.786;4.332;2022-07-12T01:57:04;7.93;;;3.30;;
22770;SDS011;11552;50.786;4.332;2022-07-12T01:59:30;5.53;;;3.45;;
22770;SDS011;11552;50.786;4.332;2022-07-12T02:01:57;5.65;;;2.92;;
22770;SDS011;11552;50.786;4.332;2022-07-12T02:04:24;4.45;;;3.15;;
22770;SDS011;11552;50.786;4.332;2022-07-12T02:06:50;4.03;;;2.85;;
22770;SDS011;11552;50.786;4.332;2022-07-12T02:09:16;3.35;;;3.05;;
22770;SDS011;11552;50.786;4.332;2022-07-12T02:11:43;3.20;;;2.42;;
22770;SDS011;11552;50.786;4.332;2022-07-12T02:14:13;5.85;;;2.90;;
22770;SDS011;11552;50.786;4.332;2022-07-12T02:16:43;4.35;;;2.92;;
22770;SDS011;11552;50.786;4.332;2022-07-12T02:19:09;4.90;;;2.60;;
22770;SDS011;11552;50.786;4.332;2022-07-12T02:21:35;3.72;;;3.15;;
22770;SDS011;11552;50.786;4.332;2022-07-12T02:24:01;4.07;;;3.17;;
22770;SDS011;11552;50.786;4.332;2022-07-12T02:26:27;3.90;;;2.70;;
22770;SDS011;11552;50.786;4.332;2022-07-12T02:28:53;3.67;;;2.53;;
22770;SDS011;11552;50.786;4.332;2022-07-12T02:31:19;3.42;;;2.55;;
22770;SDS011;11552;50.786;4.332;2022-07-12T02:33:45;3.45;;;2.28;;
22770;SDS011;11552;50.786;4.332;2022-07-12T02:36:10;3.58;;;2.50;;
22770;SDS011;11552;50.786;4.332;2022-07-12T02:38:36;5.93;;;2.50;;
22770;SDS011;11552;50.786;4.332;2022-07-12T02:41:02;3.55;;;2.70;;
22770;SDS011;11552;50.786;4.332;2022-07-12T02:43:31;3.05;;;2.45;;
22770;SDS011;11552;50.786;4.332;2022-07-12T02:46:05;3.47;;;2.50;;
22770;SDS011;11552;50.786;4.332;2022-07-12T02:48:32;3.50;;;2.70;;
22770;SDS011;11552;50.786;4.332;2022-07-12T02:51:01;5.05;;;2.80;;
22770;SDS011;11552;50.786;4.332;2022-07-12T02:53:28;4.00;;;2.72;;
22770;SDS011;11552;50.786;4.332;2022-07-12T02:55:54;4.18;;;2.85;;
22770;SDS011;11552;50.786;4.332;2022-07-12T02:58:19;4.57;;;3.13;;
22770;SDS011;11552;50.786;4.332;2022-07-12T03:00:45;2.92;;;2.63;;
22770;SDS011;11552;50.786;4.332;2022-07-12T03:03:11;4.45;;;2.78;;
22770;SDS011;11552;50.786;4.332;2022-07-12T03:05:38;3.45;;;2.90;;
22770;SDS011;11552;50.786;4.332;2022-07-12T03:08:04;3.38;;;2.88;;
22770;SDS011;11552;50.786;4.332;2022-07-12T03:10:31;4.88;;;3.10;;
22770;SDS011;11552;50.786;4.332;2022-07-12T03:12:57;4.85;;;3.20;;
22770;SDS011;11552;50.786;4.332;2022-07-12T03:15:22;3.95;;;3.28;;
22770;SDS011;11552;50.786;4.332;2022-07-12T03:17:48;3.60;;;2.83;;
22770;SDS011;11552;50.786;4.332;2022-07-12T03:20:14;3.75;;;3.05;;
22770;SDS011;11552;50.786;4.332;2022-07-12T03:22:43;4.95;;;3.38;;
22770;SDS011;11552;50.786;4.332;2022-07-12T03:25:12;4.83;;;3.20;;
22770;SDS011;11552;50.786;4.332;2022-07-12T03:27:38;6.18;;;3.85;;
22770;SDS011;11552;50.786;4.332;2022-07-12T03:30:05;3.63;;;3.17;;
22770;SDS011;11552;50.786;4.332;2022-07-12T03:32:31;4.65;;;3.33;;
22770;SDS011;11552;50.786;4.332;2022-07-12T03:34:57;4.45;;;3.17;;
22770;SDS011;11552;50.786;4.332;2022-07-12T03:40:10;4.57;;;3.28;;
22770;SDS011;11552;50.786;4.332;2022-07-12T03:42:36;6.22;;;3.60;;
22770;SDS011;11552;50.786;4.332;2022-07-12T03:45:02;3.75;;;3.33;;
22770;SDS011;11552;50.786;4.332;2022-07-12T03:47:28;3.75;;;3.15;;
22770;SDS011;11552;50.786;4.332;2022-07-12T03:49:55;4.00;;;3.55;;
22770;SDS011;11552;50.786;4.332;2022-07-12T03:52:21;4.93;;;3.60;;
22770;SDS011;11552;50.786;4.332;2022-07-12T03:55:00;4.32;;;3.30;;
22770;SDS011;11552;50.786;4.332;2022-07-12T03:57:27;4.18;;;3.55;;
22770;SDS011;11552;50.786;4.332;2022-07-12T03:59:53;5.30;;;3.22;;
22770;SDS011;11552;50.786;4.332;2022-07-12T04:02:19;7.45;;;3.60;;
22770;SDS011;11552;50.786;4.332;2022-07-12T04:04:45;4.93;;;3.90;;
22770;SDS011;11552;50.786;4.332;2022-07-12T04:07:10;4.28;;;3.38;;
22770;SDS011;11552;50.786;4.332;2022-07-12T04:09:36;5.22;;;3.83;;
22770;SDS011;11552;50.786;4.332;2022-07-12T04:12:02;4.45;;;3.95;;
22770;SDS011;11552;50.786;4.332;2022-07-12T04:14:28;5.57;;;3.58;;
22770;SDS011;11552;50.786;4.332;2022-07-12T04:16:55;5.65;;;3.42;;
22770;SDS011;11552;50.786;4.332;2022-07-12T04:19:21;4.38;;;3.78;;
22770;SDS011;11552;50.786;4.332;2022-07-12T04:21:52;5.60;;;4.05;;
22770;SDS011;11552;50.786;4.332;2022-07-12T04:24:19;6.53;;;4.30;;
22770;SDS011;11552;50.786;4.332;2022-07-12T04:26:45;4.20;;;3.63;;
22770;SDS011;11552;50.786;4.332;2022-07-12T04:29:11;4.20;;;3.80;;
22770;SDS011;11552;50.786;4.332;2022-07-12T04:31:37;4.80;;;3.78;;
22770;SDS011;11552;50.786;4.332;2022-07-12T04:34:03;4.50;;;3.63;;
22770;SDS011;11552;50.786;4.332;2022-07-12T04:36:28;3.92;;;3.53;;
22770;SDS011;11552;50.786;4.332;2022-07-12T04:38:54;4.22;;;3.80;;
22770;SDS011;11552;50.786;4.332;2022-07-12T04:41:19;7.70;;;4.10;;
22770;SDS011;11552;50.786;4.332;2022-07-12T04:43:45;6.50;;;3.78;;
22770;SDS011;11552;50.786;4.332;2022-07-12T04:46:10;4.65;;;3.70;;
22770;SDS011;11552;50.786;4.332;2022-07-12T04:48:36;5.10;;;3.80;;
22770;SDS011;11552;50.786;4.332;2022-07-12T04:51:03;5.53;;;3.78;;
22770;SDS011;11552;50.786;4.332;2022-07-12T04:53:29;6.93;;;4.10;;
22770;SDS011;11552;50.786;4.332;2022-07-12T04:55:54;5.88;;;4.25;;
22770;SDS011;11552;50.786;4.332;2022-07-12T04:58:21;7.32;;;4.10;;
22770;SDS011;11552;50.786;4.332;2022-07-12T05:00:48;5.70;;;4.07;;
22770;SDS011;11552;50.786;4.332;2022-07-12T05:03:14;5.63;;;3.65;;
22770;SDS011;11552;50.786;4.332;2022-07-12T05:05:39;5.85;;;4.03;;
22770;SDS011;11552;50.786;4.332;2022-07-12T05:08:05;8.57;;;4.70;;
22770;SDS011;11552;50.786;4.332;2022-07-12T05:10:30;5.97;;;4.32;;
22770;SDS011;11552;50.786;4.332;2022-07-12T05:12:56;6.75;;;5.10;;
22770;SDS011;11552;50.786;4.332;2022-07-12T05:15:22;7.20;;;5.05;;
22770;SDS011;11552;50.786;4.332;2022-07-12T05:17:47;7.00;;;4.90;;
22770;SDS011;11552;50.786;4.332;2022-07-12T05:20:13;6.45;;;4.70;;
22770;SDS011;11552;50.786;4.332;2022-07-12T05:22:39;5.00;;;4.50;;
22770;SDS011;11552;50.786;4.332;2022-07-12T05:25:06;6.22;;;4.90;;
22770;SDS011;11552;50.786;4.332;2022-07-12T05:27:33;7.68;;;5.28;;
22770;SDS011;11552;50.786;4.332;2022-07-12T05:29:59;9.52;;;5.57;;
22770;SDS011;11552;50.786;4.332;2022-07-12T05:32:25;5.75;;;5.10;;
22770;SDS011;11552;50.786;4.332;2022-07-12T05:34:51;5.85;;;5.07;;
22770;SDS011;11552;50.786;4.332;2022-07-12T05:37:17;6.35;;;5.65;;
22770;SDS011;11552;50.786;4.332;2022-07-12T05:39:42;8.55;;;5.60;;
22770;SDS011;11552;50.786;4.332;2022-07-12T05:42:08;8.20;;;6.18;;
22770;SDS011;11552;50.786;4.332;2022-07-12T05:44:34;7.47;;;5.88;;
22770;SDS011;11552;50.786;4.332;2022-07-12T05:47:00;12.70;;;7.75;;
22770;SDS011;11552;50.786;4.332;2022-07-12T05:49:25;10.60;;;7.18;;
22770;SDS011;11552;50.786;4.332;2022-07-12T05:51:51;12.80;;;9.27;;
22770;SDS011;11552;50.786;4.332;2022-07-12T05:54:35;7.65;;;6.47;;
22770;SDS011;11552;50.786;4.332;2022-07-12T05:57:01;10.95;;;6.68;;
22770;SDS011;11552;50.786;4.332;2022-07-12T05:59:27;8.73;;;7.07;;
22770;SDS011;11552;50.786;4.332;2022-07-12T06:01:54;9.30;;;7.47;;
22770;SDS011;11552;50.786;4.332;2022-07-12T06:04:19;9.82;;;7.15;;
22770;SDS011;11552;50.786;4.332;2022-07-12T06:06:45;13.88;;;7.95;;
22770;SDS011;11552;50.786;4.332;2022-07-12T06:09:11;13.93;;;7.93;;
22770;SDS011;11552;50.786;4.332;2022-07-12T06:11:36;8.55;;;7.10;;
22770;SDS011;11552;50.786;4.332;2022-07-12T06:14:02;10.80;;;7.30;;
22770;SDS011;11552;50.786;4.332;2022-07-12T06:16:28;8.75;;;7.18;;
22770;SDS011;11552;50.786;4.332;2022-07-12T06:18:53;8.10;;;7.28;;
22770;SDS011;11552;50.786;4.332;2022-07-12T06:21:19;10.00;;;6.80;;
22770;SDS011;11552;50.786;4.332;2022-07-12T06:23:45;12.88;;;7.50;;
22770;SDS011;11552;50.786;4.332;2022-07-12T06:26:10;9.23;;;7.60;;
22770;SDS011;11552;50.786;4.332;2022-07-12T06:28:36;8.60;;;7.05;;
22770;SDS011;11552;50.786;4.332;2022-07-12T06:31:02;10.82;;;6.95;;
22770;SDS011;11552;50.786;4.332;2022-07-12T06:33:28;8.77;;;6.82;;
22770;SDS011;11552;50.786;4.332;2022-07-12T06:35:54;8.07;;;7.28;;
22770;SDS011;11552;50.786;4.332;2022-07-12T06:38:21;10.10;;;7.68;;
22770;SDS011;11552;50.786;4.332;2022-07-12T06:40:46;13.10;;;7.55;;
22770;SDS011;11552;50.786;4.332;2022-07-12T06:43:12;9.60;;;8.05;;
22770;SDS011;11552;50.786;4.332;2022-07-12T06:45:38;9.30;;;8.02;;
22770;SDS011;11552;50.786;4.332;2022-07-12T06:48:05;11.88;;;8.77;;
22770;SDS011;11552;50.786;4.332;2022-07-12T06:50:31;12.05;;;9.27;;
22770;SDS011;11552;50.786;4.332;2022-07-12T06:52:57;11.18;;;8.43;;
22770;SDS011;11552;50.786;4.332;2022-07-12T06:55:23;10.25;;;8.20;;
22770;SDS011;11552;50.786;4.332;2022-07-12T06:57:49;8.65;;;7.85;;
22770;SDS011;11552;50.786;4.332;2022-07-12T07:00:14;9.18;;;8.13;;
22770;SDS011;11552;50.786;4.332;2022-07-12T07:02:40;9.57;;;7.80;;
22770;SDS011;11552;50.786;4.332;2022-07-12T07:05:06;10.50;;;8.32;;
22770;SDS011;11552;50.786;4.332;2022-07-12T07:07:32;8.93;;;8.00;;
22770;SDS011;11552;50.786;4.332;2022-07-12T07:09:58;8.40;;;7.35;;
22770;SDS011;11552;50.786;4.332;2022-07-12T07:12:24;7.78;;;6.93;;
22770;SDS011;11552;50.786;4.332;2022-07-12T07:14:50;7.80;;;7.00;;
22770;SDS011;11552;50.786;4.332;2022-07-12T07:17:16;8.18;;;6.40;;
22770;SDS011;11552;50.786;4.332;2022-07-12T07:19:42;10.35;;;7.60;;
22770;SDS011;11552;50.786;4.332;2022-07-12T07:22:09;7.47;;;6.78;;
22770;SDS011;11552;50.786;4.332;2022-07-12T07:24:35;119.10;;;21.63;;
22770;SDS011;11552;50.786;4.332;2022-07-12T07:27:01;16.40;;;7.45;;
22770;SDS011;11552;50.786;4.332;2022-07-12T07:29:27;8.40;;;7.32;;
22770;SDS011;11552;50.786;4.332;2022-07-12T07:32:11;51.30;;;9.57;;
22770;SDS011;11552;50.786;4.332;2022-07-12T07:34:37;10.70;;;7.22;;
22770;SDS011;11552;50.786;4.332;2022-07-12T07:37:02;14.23;;;6.90;;
22770;SDS011;11552;50.786;4.332;2022-07-12T07:39:28;9.25;;;6.22;;
22770;SDS011;11552;50.786;4.332;2022-07-12T07:41:54;8.90;;;6.55;;
22770;SDS011;11552;50.786;4.332;2022-07-12T07:44:20;7.47;;;6.22;;
22770;SDS011;11552;50.786;4.332;2022-07-12T07:46:45;6.70;;;6.10;;
22770;SDS011;11552;50.786;4.332;2022-07-12T07:49:11;12.75;;;6.80;;
22770;SDS011;11552;50.786;4.332;2022-07-12T07:51:37;11.48;;;6.53;;
22770;SDS011;11552;50.786;4.332;2022-07-12T07:54:04;9.20;;;6.65;;
22770;SDS011;11552;50.786;4.332;2022-07-12T07:56:29;7.43;;;6.35;;
22770;SDS011;11552;50.786;4.332;2022-07-12T07:58:55;10.95;;;6.03;;
22770;SDS011;11552;50.786;4.332;2022-07-12T08:01:21;6.88;;;6.00;;
22770;SDS011;11552;50.786;4.332;2022-07-12T08:04:07;8.88;;;6.13;;
22770;SDS011;11552;50.786;4.332;2022-07-12T08:06:35;5.80;;;5.28;;
22770;SDS011;11552;50.786;4.332;2022-07-12T08:09:01;6.18;;;5.57;;
22770;SDS011;11552;50.786;4.332;2022-07-12T08:11:27;13.73;;;6.07;;
22770;SDS011;11552;50.786;4.332;2022-07-12T08:13:53;10.50;;;5.78;;
22770;SDS011;11552;50.786;4.332;2022-07-12T08:16:18;9.80;;;5.60;;
22770;SDS011;11552;50.786;4.332;2022-07-12T08:18:44;9.65;;;5.63;;
22770;SDS011;11552;50.786;4.332;2022-07-12T08:21:10;8.45;;;5.53;;
22770;SDS011;11552;50.786;4.332;2022-07-12T08:23:35;6.22;;;5.05;;
22770;SDS011;11552;50.786;4.332;2022-07-12T08:26:01;8.00;;;5.85;;
22770;SDS011;11552;50.786;4.332;2022-07-12T08:28:26;16.52;;;6.10;;
22770;SDS011;11552;50.786;4.332;2022-07-12T08:30:52;12.43;;;5.28;;
22770;SDS011;11552;50.786;4.332;2022-07-12T08:33:18;7.57;;;5.07;;
22770;SDS011;11552;50.786;4.332;2022-07-12T08:35:44;8.50;;;4.53;;
22770;SDS011;11552;50.786;4.332;2022-07-12T08:38:10;8.57;;;4.72;;
22770;SDS011;11552;50.786;4.332;2022-07-12T08:40:36;7.70;;;4.80;;
22770;SDS011;11552;50.786;4.332;2022-07-12T08:43:01;11.80;;;4.18;;
22770;SDS011;11552;50.786;4.332;2022-07-12T08:45:27;9.68;;;4.28;;
22770;SDS011;11552;50.786;4.332;2022-07-12T08:47:53;7.10;;;4.63;;
22770;SDS011;11552;50.786;4.332;2022-07-12T08:50:20;4.68;;;3.78;;
22770;SDS011;11552;50.786;4.332;2022-07-12T08:52:51;5.03;;;3.83;;
22770;SDS011;11552;50.786;4.332;2022-07-12T08:58:03;5.57;;;3.88;;
22770;SDS011;11552;50.786;4.332;2022-07-12T09:00:33;6.15;;;3.83;;
22770;SDS011;11552;50.786;4.332;2022-07-12T09:02:59;4.25;;;3.80;;
22770;SDS011;11552;50.786;4.332;2022-07-12T09:05:26;8.95;;;3.97;;
22770;SDS011;11552;50.786;4.332;2022-07-12T09:08:09;8.63;;;3.80;;
22770;SDS011;11552;50.786;4.332;2022-07-12T09:10:50;4.93;;;3.45;;
22770;SDS011;11552;50.786;4.332;2022-07-12T09:13:21;187.38;;;21.45;;
22770;SDS011;11552;50.786;4.332;2022-07-12T09:16:18;42.60;;;7.07;;
22770;SDS011;11552;50.786;4.332;2022-07-12T09:18:49;49.03;;;8.93;;
22770;SDS011;11552;50.786;4.332;2022-07-12T09:21:22;51.80;;;8.43;;
22770;SDS011;11552;50.786;4.332;2022-07-12T09:23:56;14.48;;;4.35;;
22770;SDS011;11552;50.786;4.332;2022-07-12T09:26:24;6.40;;;4.32;;
22770;SDS011;11552;50.786;4.332;2022-07-12T09:28:55;17.20;;;4.68;;
22770;SDS011;11552;50.786;4.332;2022-07-12T09:31:38;7.20;;;5.00;;
22770;SDS011;11552;50.786;4.332;2022-07-12T09:34:04;11.48;;;4.47;;
22770;SDS011;11552;50.786;4.332;2022-07-12T09:36:58;20.33;;;4.15;;
22770;SDS011;11552;50.786;4.332;2022-07-12T09:39:23;5.70;;;4.00;;
22770;SDS011;11552;50.786;4.332;2022-07-12T09:41:51;12.55;;;3.85;;
22770;SDS011;11552;50.786;4.332;2022-07-12T09:44:19;3.95;;;3.30;;
22770;SDS011;11552;50.786;4.332;2022-07-12T09:46:46;6.38;;;3.40;;
22770;SDS011;11552;50.786;4.332;2022-07-12T09:49:13;7.60;;;3.88;;
22770;SDS011;11552;50.786;4.332;2022-07-12T09:51:38;8.65;;;3.80;;
22770;SDS011;11552;50.786;4.332;2022-07-12T09:54:07;7.03;;;3.03;;
22770;SDS011;11552;50.786;4.332;2022-07-12T09:56:35;4.47;;;3.28;;
22770;SDS011;11552;50.786;4.332;2022-07-12T09:59:06;5.82;;;2.80;;
22770;SDS011;11552;50.786;4.332;2022-07-12T10:01:36;4.75;;;3.03;;
22770;SDS011;11552;50.786;4.332;2022-07-12T10:04:03;18.45;;;4.03;;
22770;SDS011;11552;50.786;4.332;2022-07-12T10:06:30;8.65;;;3.22;;
22770;SDS011;11552;50.786;4.332;2022-07-12T10:08:56;42.00;;;4.95;;
22770;SDS011;11552;50.786;4.332;2022-07-12T10:11:25;12.85;;;3.50;;
22770;SDS011;11552;50.786;4.332;2022-07-12T10:13:51;12.95;;;3.63;;
22770;SDS011;11552;50.786;4.332;2022-07-12T10:16:24;5.35;;;3.40;;
22770;SDS011;11552;50.786;4.332;2022-07-12T10:19:20;3.47;;;2.90;;
22770;SDS011;11552;50.786;4.332;2022-07-12T10:21:48;5.30;;;3.30;;
22770;SDS011;11552;50.786;4.332;2022-07-12T10:26:58;6.03;;;3.00;;
22770;SDS011;11552;50.786;4.332;2022-07-12T10:29:48;6.25;;;4.55;;
22770;SDS011;11552;50.786;4.332;2022-07-12T10:35:15;4.00;;;3.50;;
22770;SDS011;11552;50.786;4.332;2022-07-12T10:38:14;4.80;;;3.40;;
22770;SDS011;11552;50.786;4.332;2022-07-12T10:40:38;9.57;;;3.58;;
22770;SDS011;11552;50.786;4.332;2022-07-12T10:45:31;5.57;;;4.00;;
22770;SDS011;11552;50.786;4.332;2022-07-12T10:48:01;8.25;;;3.90;;
22770;SDS011;11552;50.786;4.332;2022-07-12T10:53:47;7.40;;;4.22;;
22770;SDS011;11552;50.786;4.332;2022-07-12T10:56:17;76.15;;;7.90;;
22770;SDS011;11552;50.786;4.332;2022-07-12T10:58:51;22.00;;;3.95;;
22770;SDS011;11552;50.786;4.332;2022-07-12T11:01:20;61.33;;;5.97;;
22770;SDS011;11552;50.786;4.332;2022-07-12T11:03:57;10.20;;;4.43;;
22770;SDS011;11552;50.786;4.332;2022-07-12T11:06:28;5.75;;;3.53;;
22770;SDS011;11552;50.786;4.332;2022-07-12T11:08:57;5.20;;;3.80;;
22770;SDS011;11552;50.786;4.332;2022-07-12T11:11:26;8.90;;;4.03;;
22770;SDS011;11552;50.786;4.332;2022-07-12T11:13:59;4.28;;;3.63;;
22770;SDS011;11552;50.786;4.332;2022-07-12T11:16:26;6.43;;;3.67;;
22770;SDS011;11552;50.786;4.332;2022-07-12T11:18:54;4.57;;;3.80;;
22770;SDS011;11552;50.786;4.332;2022-07-12T11:21:20;6.45;;;4.10;;
22770;SDS011;11552;50.786;4.332;2022-07-12T11:23:47;5.55;;;3.75;;
22770;SDS011;11552;50.786;4.332;2022-07-12T11:26:13;6.45;;;3.75;;
22770;SDS011;11552;50.786;4.332;2022-07-12T11:28:40;4.18;;;3.40;;
22770;SDS011;11552;50.786;4.332;2022-07-12T11:31:14;6.13;;;3.53;;
22770;SDS011;11552;50.786;4.332;2022-07-12T11:33:43;5.57;;;3.60;;
22770;SDS011;11552;50.786;4.332;2022-07-12T11:36:10;7.32;;;4.15;;
22770;SDS011;11552;50.786;4.332;2022-07-12T11:38:38;4.72;;;3.50;;
22770;SDS011;11552;50.786;4.332;2022-07-12T11:41:08;5.25;;;3.78;;
22770;SDS011;11552;50.786;4.332;2022-07-12T11:43:35;5.30;;;4.00;;
22770;SDS011;11552;50.786;4.332;2022-07-12T11:46:01;5.70;;;3.67;;
22770;SDS011;11552;50.786;4.332;2022-07-12T11:48:29;5.90;;;3.78;;
22770;SDS011;11552;50.786;4.332;2022-07-12T11:51:02;5.90;;;3.70;;
22770;SDS011;11552;50.786;4.332;2022-07-12T11:53:32;5.10;;;3.20;;
22770;SDS011;11552;50.786;4.332;2022-07-12T11:55:59;5.40;;;3.40;;
22770;SDS011;11552;50.786;4.332;2022-07-12T11:58:26;7.13;;;4.32;;
22770;SDS011;11552;50.786;4.332;2022-07-12T12:00:53;5.30;;;4.10;;
22770;SDS011;11552;50.786;4.332;2022-07-12T12:03:20;4.93;;;3.40;;
22770;SDS011;11552;50.786;4.332;2022-07-12T12:05:53;7.72;;;3.15;;
22770;SDS011;11552;50.786;4.332;2022-07-12T12:08:19;7.07;;;3.70;;
22770;SDS011;11552;50.786;4.332;2022-07-12T12:10:58;6.97;;;3.80;;
22770;SDS011;11552;50.786;4.332;2022-07-12T12:13:26;4.25;;;3.30;;
22770;SDS011;11552;50.786;4.332;2022-07-12T12:15:53;4.30;;;3.13;;
22770;SDS011;11552;50.786;4.332;2022-07-12T12:18:40;6.47;;;2.95;;
22770;SDS011;11552;50.786;4.332;2022-07-12T12:21:09;3.97;;;2.78;;
22770;SDS011;11552;50.786;4.332;2022-07-12T12:23:36;5.57;;;3.00;;
22770;SDS011;11552;50.786;4.332;2022-07-12T12:26:13;6.80;;;2.88;;
22770;SDS011;11552;50.786;4.332;2022-07-12T12:31:19;4.18;;;2.78;;
22770;SDS011;11552;50.786;4.332;2022-07-12T12:33:52;4.72;;;3.20;;
22770;SDS011;11552;50.786;4.332;2022-07-12T12:36:25;5.55;;;2.95;;
22770;SDS011;11552;50.786;4.332;2022-07-12T12:41:27;7.15;;;3.08;;
22770;SDS011;11552;50.786;4.332;2022-07-12T12:44:04;7.80;;;2.90;;
22770;SDS011;11552;50.786;4.332;2022-07-12T12:49:46;5.60;;;3.05;;
22770;SDS011;11552;50.786;4.332;2022-07-12T12:52:13;5.75;;;3.08;;
22770;SDS011;11552;50.786;4.332;2022-07-12T12:54:39;5.22;;;3.10;;
22770;SDS011;11552;50.786;4.332;2022-07-12T12:57:05;5.38;;;3.40;;
22770;SDS011;11552;50.786;4.332;2022-07-12T12:59:32;5.97;;;2.90;;
22770;SDS011;11552;50.786;4.332;2022-07-12T13:01:58;3.92;;;3.15;;
22770;SDS011;11552;50.786;4.332;2022-07-12T13:04:31;7.63;;;3.00;;
22770;SDS011;11552;50.786;4.332;2022-07-12T13:06:58;4.80;;;3.00;;
22770;SDS011;11552;50.786;4.332;2022-07-12T13:09:24;9.80;;;3.00;;
22770;SDS011;11552;50.786;4.332;2022-07-12T13:11:50;6.07;;;3.05;;
22770;SDS011;11552;50.786;4.332;2022-07-12T13:14:16;7.35;;;3.22;;
22770;SDS011;11552;50.786;4.332;2022-07-12T13:16:42;3.72;;;2.97;;
22770;SDS011;11552;50.786;4.332;2022-07-12T13:19:07;6.80;;;3.13;;
22770;SDS011;11552;50.786;4.332;2022-07-12T13:21:33;3.17;;;2.70;;
22770;SDS011;11552;50.786;4.332;2022-07-12T13:23:59;4.53;;;2.70;;
22770;SDS011;11552;50.786;4.332;2022-07-12T13:26:24;4.60;;;2.70;;
22770;SDS011;11552;50.786;4.332;2022-07-12T13:28:52;4.72;;;3.00;;
22770;SDS011;11552;50.786;4.332;2022-07-12T13:31:19;5.43;;;3.03;;
22770;SDS011;11552;50.786;4.332;2022-07-12T13:33:45;5.97;;;2.80;;
22770;SDS011;11552;50.786;4.332;2022-07-12T13:36:11;4.75;;;2.80;;
22770;SDS011;11552;50.786;4.332;2022-07-12T13:38:37;4.88;;;3.15;;
22770;SDS011;11552;50.786;4.332;2022-07-12T13:41:04;4.97;;;2.42;;
22770;SDS011;11552;50.786;4.332;2022-07-12T13:43:30;4.63;;;2.50;;
22770;SDS011;11552;50.786;4.332;2022-07-12T13:45:56;10.75;;;2.67;;
22770;SDS011;11552;50.786;4.332;2022-07-12T13:48:21;4.90;;;2.50;;
22770;SDS011;11552;50.786;4.332;2022-07-12T13:50:47;4.03;;;3.10;;
22770;SDS011;11552;50.786;4.332;2022-07-12T13:53:13;12.68;;;2.95;;
22770;SDS011;11552;50.786;4.332;2022-07-12T13:55:43;16.63;;;2.92;;
22770;SDS011;11552;50.786;4.332;2022-07-12T13:58:09;5.13;;;2.40;;
22770;SDS011;11552;50.786;4.332;2022-07-12T14:00:36;36.15;;;5.13;;
22770;SDS011;11552;50.786;4.332;2022-07-12T14:03:01;14.57;;;3.67;;
22770;SDS011;11552;50.786;4.332;2022-07-12T14:05:27;6.15;;;3.35;;
22770;SDS011;11552;50.786;4.332;2022-07-12T14:07:53;5.13;;;2.63;;
22770;SDS011;11552;50.786;4.332;2022-07-12T14:10:19;6.45;;;2.75;;
22770;SDS011;11552;50.786;4.332;2022-07-12T14:12:45;4.65;;;3.08;;
22770;SDS011;11552;50.786;4.332;2022-07-12T14:15:11;11.13;;;3.35;;
22770;SDS011;11552;50.786;4.332;2022-07-12T14:17:37;6.78;;;3.47;;
22770;SDS011;11552;50.786;4.332;2022-07-12T14:20:03;5.30;;;2.90;;
22770;SDS011;11552;50.786;4.332;2022-07-12T14:22:30;7.35;;;3.05;;
22770;SDS011;11552;50.786;4.332;2022-07-12T14:24:56;8.20;;;2.70;;
22770;SDS011;11552;50.786;4.332;2022-07-12T14:27:22;8.88;;;3.70;;
22770;SDS011;11552;50.786;4.332;2022-07-12T14:29:48;8.45;;;2.50;;
22770;SDS011;11552;50.786;4.332;2022-07-12T14:32:13;5.38;;;2.28;;
22770;SDS011;11552;50.786;4.332;2022-07-12T14:34:40;3.50;;;3.20;;
22770;SDS011;11552;50.786;4.332;2022-07-12T14:37:06;5.93;;;2.35;;
22770;SDS011;11552;50.786;4.332;2022-07-12T14:39:31;7.53;;;3.15;;
22770;SDS011;11552;50.786;4.332;2022-07-12T14:41:57;4.88;;;2.20;;
22770;SDS011;11552;50.786;4.332;2022-07-12T14:44:24;9.60;;;2.80;;
22770;SDS011;11552;50.786;4.332;2022-07-12T14:46:50;8.35;;;2.30;;
22770;SDS011;11552;50.786;4.332;2022-07-12T14:49:18;6.03;;;1.90;;
22770;SDS011;11552;50.786;4.332;2022-07-12T14:51:44;11.70;;;1.98;;
22770;SDS011;11552;50.786;4.332;2022-07-12T14:54:10;5.07;;;2.00;;
22770;SDS011;11552;50.786;4.332;2022-07-12T14:56:36;5.22;;;1.90;;
22770;SDS011;11552;50.786;4.332;2022-07-12T14:59:01;5.28;;;1.98;;
22770;SDS011;11552;50.786;4.332;2022-07-12T15:01:27;5.53;;;1.30;;
22770;SDS011;11552;50.786;4.332;2022-07-12T15:03:53;8.95;;;1.90;;
22770;SDS011;11552;50.786;4.332;2022-07-12T15:06:18;6.18;;;2.40;;
22770;SDS011;11552;50.786;4.332;2022-07-12T15:08:44;5.47;;;1.83;;
22770;SDS011;11552;50.786;4.332;2022-07-12T15:11:10;8.88;;;2.25;;
22770;SDS011;11552;50.786;4.332;2022-07-12T15:13:35;3.08;;;2.08;;
22770;SDS011;11552;50.786;4.332;2022-07-12T15:16:01;4.80;;;2.00;;
22770;SDS011;11552;50.786;4.332;2022-07-12T15:18:27;6.30;;;1.80;;